Pukaskwa, Ontario

12:22 PM EDT on 三月 27, 2017 (GMT -0400)
IONTARIO221 | | Change Station

高度 712 ft 48.72 °N, 86.38 °W | Updated 2 minutes ago

曇
39.0 °F
体感気温 39 °F
0.0
風 変数 風 から 東南東
Gusts 0.0 Mph

今日
高い -- | 低 -- °F
--% 降水確率
昨日
高い -- | 低 -- °F
Precip. -- インチ
気圧 29.97 インチ
視程 15.0 マイル
わずか 1300 ft
やや曇 12000 ft
だいたい曇 24000 ft
体感気温(寒さ) 39 °F
露点温度 34 °F
湿度 82%
降水 0.00 インチ
積雪深 利用不可。
7:32 AM 8:08 PM
二十六夜, 0% visible
METAR CYSP 271600Z 07004KT 330V110 15SM FEW013 SCT120 BKN240 04/M01 A2992 RMK CF1AC2CI4 SLP147
気圧 29.97 インチ
視程 15.0 マイル
わずか 1300 ft
やや曇 12000 ft
だいたい曇 24000 ft
体感気温(寒さ) 39 °F
露点温度 34 °F
湿度 82%
降水 0.00 インチ
積雪深 利用不可。
7:32 AM 8:08 PM
二十六夜, 0% visible
METAR CYSP 271600Z 07004KT 330V110 15SM FEW013 SCT120 BKN240 04/M01 A2992 RMK CF1AC2CI4 SLP147

Get Severe Weather Alerts

Thanks for signing up!

Be on the lookout for a verification email in your inbox.

You'll start receiving the daily forecast at 8 AM.

×

10-Day Weather Forecast

Almanac

天文

Mar. 27, 2017 入り
実時間
常用薄明
航海薄明
天文薄明
可視光の長さ
可照時間
Tomorrow will be .
, % of the Moon is Illuminated

今日の極値

Country Highs Country Lows

Community

WunderPhotos

Upload Photos

1,962,540 写真がアップロードされました!

WunderBlog® & News

Nearby

空気品質

  空気品質 大気質指数 汚染物質
Not available.

積雪深

Station Depth 高度

地震活動

Distance Mag. Time & Date
Minimum magnitude displayed is 2.5.

地震活動

Distance Mag. Time & Date
Minimum magnitude displayed is 2.5.

沿岸の水温

地名 気温

Stations

最寄りの気象観測所

観測所位置 温度 体感気温(寒さ) 露点温度 湿度 Precip. 高度 更新日時 タイプする
                   

Watches & Warnings

There are currently no watches in effect.